Time;durP1;ratioP1;P1;durP2;ratioP2;P2;SDS_P1;SDS_P2;PMS_P1;PMS_P2;Temp;Humidity;BMP_temperature;BMP_pressure;BME280_temperature;BME280_humidity;BME280_pressure;Samples;Min_cycle;Max_cycle;Signal;HPM_P1;HPM_P2
2022/10/18 15:54:35;;;;;;;14.00;5.10;;;;;;;;;;4516719;27;20550;-60
2022/10/18 15:57:08;;;;;;;16.45;7.28;;;;;;;;;;4515038;27;20706;-67
2022/10/18 15:59:36;;;;;;;14.48;6.70;;;;;;;;;;4388056;27;131333;-54
2022/10/18 16:01:32;;;;;;;16.33;7.82;;;;;;;;;;942805;27;20085;-59
2022/10/18 16:02:02;;;;;;;19.67;6.78;;;;;;;;;;942680;27;20022;-60
2022/10/18 16:02:33;;;;;;;16.17;6.90;;;;;;;;;;942861;27;20009;-61
2022/10/18 16:03:09;;;;;;;18.17;7.07;;;;;;;;;;913321;27;20009;-59
2022/10/18 16:03:39;;;;;;;14.93;6.60;;;;;;;;;;942414;27;20009;-59
2022/10/18 16:04:18;;;;;;;19.38;7.03;;;;;;;;;;942374;27;20247;-57
2022/10/18 16:04:49;;;;;;;21.05;6.93;;;;;;;;;;894960;28;125532;-56
2022/10/18 16:05:20;;;;;;;9.43;5.65;;;;;;;;;;942324;27;20057;-48
2022/10/18 16:06:18;;;;;;;17.73;6.43;;;;;;;28.73;47.52;98450.38;899710;28;225143;-52
2022/10/18 16:06:50;;;;;;;15.27;6.80;;;;;;;28.88;53.48;98445.88;942185;27;20006;-59
2022/10/18 16:07:21;;;;;;;11.23;6.72;;;;;;;28.96;48.57;98440.59;942336;27;20243;-43
2022/10/18 16:07:54;;;;;;;12.75;6.13;;;;;;;29.02;47.23;98449.69;859900;27;22712;-42
2022/10/18 16:08:27;;;;;;;12.73;6.47;;;;;;;29.14;49.76;98450.22;905924;28;22594;-45
2022/10/18 16:09:01;;;;;;;13.50;6.55;;;;;;;29.06;46.57;98446.13;897179;27;20746;-43
2022/10/18 16:09:32;;;;;;;12.10;5.93;;;;;;;29.07;47.86;98449.69;919663;27;20030;-53
2022/10/18 16:10:11;;;;;;;10.88;5.75;;;;;;;29.10;46.81;98444.44;942170;27;19999;-57
2022/10/18 16:10:45;;;;;;;10.85;5.93;;;;;;;29.10;47.35;98438.03;919891;27;20058;-46
2022/10/18 16:11:17;;;;;;;17.00;6.65;;;;;;;29.09;47.00;98451.06;908247;28;21439;-55
2022/10/18 16:22:31;;;;;;;15.95;6.57;;;;;;;28.67;49.41;98458.94;942741;27;20776;-58
2022/10/18 16:23:04;;;;;;;13.43;6.07;;;;;;;28.70;48.89;98458.38;856836;27;21290;-56
2022/10/18 16:43:59;;;;;;;;;;;;;;;;;;941683;31;19959;-75
2022/10/18 16:44:29;;;;;;;;;;;;;;;;;;943298;27;19907;-74
2022/10/18 16:45:00;;;;;;;;;;;;;;;;;;943439;27;19907;-75
2022/10/18 16:45:32;;;;;;;;;;;;;;;;;;943351;27;19911;-75
2022/10/18 16:46:03;;;;;;;;;;;;;;;;;;943344;27;19918;-75
2022/10/18 16:46:33;;;;;;;;;;;;;;;;;;943236;27;20152;-75
2022/10/18 16:47:06;;;;;;;;;;;;;;;;;;943467;27;19926;-74
2022/10/18 16:47:36;;;;;;;;;;;;;;;;;;943464;27;19918;-75
2022/10/18 16:48:07;;;;;;;;;;;;;;;;;;943498;27;19919;-75
2022/10/18 16:48:40;;;;;;;;;;;;;;;;;;943570;27;19926;-75
2022/10/18 16:49:10;;;;;;;;;;;;;;;;;;943305;27;19907;-76
2022/10/18 16:49:40;;;;;;;;;;;;;;;;;;943842;27;19923;-79
2022/10/18 16:50:12;;;;;;;;;;;;;;;;;;943496;27;19911;-76
2022/10/18 16:50:45;;;;;;;;;;;;;;;;;;943812;27;19915;-76
2022/10/18 16:51:15;;;;;;;;;;;;;;;;;;943735;27;19941;-74
2022/10/18 17:21:02;;;;;;;;;;;;;;;;;;942299;31;20224;-78
2022/10/18 17:21:33;;;;;;;;;;;;;;;;;;945717;27;19916;-80
2022/10/18 17:22:04;;;;;;;;;;;;;;;;;;946492;27;19900;-76
2022/10/18 17:22:37;;;;;;;;;;;;;;;;;;945848;27;20588;-75
2022/10/18 17:23:08;;;;;;;;;;;;;;;;;;944754;27;19908;-77
2022/10/18 17:23:38;;;;;;;;;;;;;;;;;;944556;27;19907;-76
2022/10/18 17:24:11;;;;;;;;;;;;;;;;;;944464;27;19907;-75
2022/10/18 17:24:42;;;;;;;;;;;;;;;;;;944293;27;19907;-75
2022/10/18 17:25:13;;;;;;;;;;;;;;;;;;944146;27;19908;-77
2022/10/18 17:25:46;;;;;;;;;;;;;;;;;;944434;27;19899;-75
2022/10/18 17:26:16;;;;;;;;;;;;;;;;;;944694;27;19903;-79
2022/10/18 17:32:17;;;;;;;;;;;;;;;;;;944528;31;20029;-80
2022/10/18 17:32:48;;;;;;;;;;;;;;;;;;944582;27;19903;-78
2022/10/18 17:33:22;;;;;;;;;;;;;;;;;;945425;27;19907;-80
2022/10/18 17:33:54;;;;;;;;;;;;;;;;;;946001;27;20283;-77
2022/10/18 17:34:24;;;;;;;;;;;;;;;;;;946156;27;19899;-78
2022/10/18 17:34:58;;;;;;;;;;;;;;;;;;946137;27;19979;-79
2022/10/18 17:35:28;;;;;;;;;;;;;;;;;;946586;27;19932;-78
2022/10/18 17:35:59;;;;;;;;;;;;;;;;;;944760;27;19919;-78
2022/10/18 17:36:33;;;;;;;;;;;;;;;;;;944628;27;19947;-77
2022/10/18 17:37:04;;;;;;;;;;;;;;;;;;945258;27;19907;-79
2022/10/18 17:37:37;;;;;;;;;;;;;;;;;;945108;27;19922;-78
2022/10/18 17:38:08;;;;;;;;;;;;;;;;;;944584;27;19908;-77
2022/10/18 17:38:38;;;;;;;;;;;;;;;;;;944158;27;19915;-77
2022/10/18 17:39:12;;;;;;;;;;;;;;;;;;945338;27;19921;-77
2022/10/18 17:39:43;;;;;;;;;;;;;;;;;;945219;27;19919;-76
2022/10/18 17:40:13;;;;;;;;;;;;;;;;;;945962;27;19908;-78
2022/10/18 17:40:47;;;;;;;;;;;;;;;;;;944871;27;19960;-78
2022/10/18 17:41:18;;;;;;;;;;;;;;;;;;946587;27;19915;-79
2022/10/18 17:41:51;;;;;;;;;;;;;;;;;;946489;27;20252;-78
2022/10/18 17:42:22;;;;;;;;;;;;;;;;;;945579;27;20543;-78
2022/10/18 17:42:53;;;;;;;;;;;;;;;;;;946064;27;19896;-78
2022/10/18 17:43:27;;;;;;;;;;;;;;;;;;944554;27;20243;-78
2022/10/18 17:43:58;;;;;;;;;;;;;;;;;;945755;27;20266;-79
2022/10/18 17:44:28;;;;;;;;;;;;;;;;;;944822;27;19907;-78
2022/10/18 17:45:02;;;;;;;;;;;;;;;;;;945483;27;19926;-78
2022/10/18 17:45:32;;;;;;;;;;;;;;;;;;945786;27;19907;-78
2022/10/18 17:46:04;;;;;;;;;;;;;;;;;;946292;27;20259;-76
2022/10/18 17:46:37;;;;;;;;;;;;;;;;;;945563;27;19955;-78
2022/10/18 17:47:07;;;;;;;;;;;;;;;;;;946212;27;20216;-78
2022/10/18 17:47:41;;;;;;;;;;;;;;;;;;945363;27;19907;-78
2022/10/18 17:48:14;;;;;;;;;;;;;;;;;;945929;27;19915;-78
2022/10/18 17:48:45;;;;;;;;;;;;;;;;;;945015;27;19903;-78
2022/10/18 17:49:15;;;;;;;;;;;;;;;;;;945558;27;19904;-78
2022/10/18 17:49:49;;;;;;;;;;;;;;;;;;945324;27;19900;-79
2022/10/18 17:50:19;;;;;;;;;;;;;;;;;;944921;27;19931;-77
2022/10/18 17:50:50;;;;;;;;;;;;;;;;;;945263;27;19914;-79
2022/10/18 17:51:23;;;;;;;;;;;;;;;;;;944535;27;19940;-78
2022/10/18 17:51:54;;;;;;;;;;;;;;;;;;944247;27;19911;-77
2022/10/18 17:52:25;;;;;;;;;;;;;;;;;;944251;27;19914;-78
2022/10/18 17:52:58;;;;;;;;;;;;;;;;;;943996;27;19909;-78
2022/10/18 17:53:29;;;;;;;;;;;;;;;;;;945228;27;19923;-77
2022/10/18 17:54:00;;;;;;;;;;;;;;;;;;945264;27;19926;-78
2022/10/18 17:54:33;;;;;;;;;;;;;;;;;;945950;27;19911;-78
2022/10/18 17:55:04;;;;;;;;;;;;;;;;;;944788;27;19907;-77
2022/10/18 17:55:35;;;;;;;;;;;;;;;;;;944823;27;19914;-77
2022/10/18 17:56:09;;;;;;;;;;;;;;;;;;944986;27;19960;-79
2022/10/18 17:56:39;;;;;;;;;;;;;;;;;;944725;27;20282;-78
2022/10/18 17:57:13;;;;;;;;;;;;;;;;;;945038;27;19918;-79
2022/10/18 17:57:43;;;;;;;;;;;;;;;;;;944561;27;19907;-78
2022/10/18 17:58:14;;;;;;;;;;;;;;;;;;945162;27;19907;-80
2022/10/18 17:58:51;;;;;;;;;;;;;;;;;;945242;27;19961;-78
2022/10/18 17:59:22;;;;;;;;;;;;;;;;;;943964;27;20461;-77
2022/10/18 17:59:54;;;;;;;;;;;;;;;;;;944227;27;19914;-78
2022/10/18 18:00:27;;;;;;;;;;;;;;;;;;943811;27;19915;-77
2022/10/18 18:01:06;;;;;;;;;;;;;;;;;;945380;27;20310;-77
2022/10/18 18:01:37;;;;;;;;;;;;;;;;;;944228;27;19958;-78
2022/10/18 18:02:10;;;;;;;;;;;;;;;;;;945634;27;19916;-79
2022/10/18 18:02:45;;;;;;;;;;;;;;;;;;943940;27;19907;-78
2022/10/18 18:03:18;;;;;;;;;;;;;;;;;;944761;27;19921;-77
2022/10/18 18:03:49;;;;;;;;;;;;;;;;;;943742;27;20216;-77
2022/10/18 18:04:24;;;;;;;;;;;;;;;;;;944589;27;19907;-78
2022/10/18 18:04:55;;;;;;;;;;;;;;;;;;944609;27;19908;-77
2022/10/18 18:05:29;;;;;;;;;;;;;;;;;;944960;27;20382;-77
2022/10/18 18:06:02;;;;;;;;;;;;;;;;;;945082;27;19918;-78
2022/10/18 18:06:33;;;;;;;;;;;;;;;;;;944228;27;19907;-78
2022/10/18 18:07:07;;;;;;;;;;;;;;;;;;945030;27;19917;-78
2022/10/18 18:07:37;;;;;;;;;;;;;;;;;;945289;27;19899;-78
2022/10/18 18:08:08;;;;;;;;;;;;;;;;;;944632;27;20204;-78
2022/10/18 18:08:41;;;;;;;;;;;;;;;;;;944865;27;20117;-78
2022/10/18 18:09:13;;;;;;;;;;;;;;;;;;944502;27;19911;-81
2022/10/18 18:09:47;;;;;;;;;;;;;;;;;;944669;27;19908;-78
2022/10/18 18:10:17;;;;;;;;;;;;;;;;;;944919;27;19957;-77
2022/10/18 18:10:52;;;;;;;;;;;;;;;;;;945146;27;19919;-77
2022/10/18 18:11:26;;;;;;;;;;;;;;;;;;943796;27;20113;-77
2022/10/18 18:11:56;;;;;;;;;;;;;;;;;;944330;27;20179;-77
2022/10/18 18:12:27;;;;;;;;;;;;;;;;;;944668;27;19907;-78
2022/10/18 18:13:00;;;;;;;;;;;;;;;;;;945310;27;19998;-79
2022/10/18 18:13:31;;;;;;;;;;;;;;;;;;945413;27;19899;-78
2022/10/18 18:14:07;;;;;;;;;;;;;;;;;;945515;27;19896;-77
2022/10/18 18:14:40;;;;;;;;;;;;;;;;;;944589;27;20501;-78
2022/10/18 18:15:11;;;;;;;;;;;;;;;;;;944381;27;19914;-75
2022/10/18 18:15:42;;;;;;;;;;;;;;;;;;943840;27;19950;-78
2022/10/18 18:16:16;;;;;;;;;;;;;;;;;;945287;27;19968;-80
2022/10/18 18:16:47;;;;;;;;;;;;;;;;;;945856;27;19903;-81
2022/10/18 18:17:17;;;;;;;;;;;;;;;;;;945404;27;19903;-81
2022/10/18 18:17:53;;;;;;;;;;;;;;;;;;946360;27;19915;-78
2022/10/18 18:18:24;;;;;;;;;;;;;;;;;;946999;27;19899;-78
2022/10/18 18:18:55;;;;;;;;;;;;;;;;;;946286;27;19907;-78
2022/10/18 18:19:29;;;;;;;;;;;;;;;;;;946256;27;20227;-77
2022/10/18 18:20:00;;;;;;;;;;;;;;;;;;946842;27;19906;-80
2022/10/18 18:20:30;;;;;;;;;;;;;;;;;;946906;27;19895;-77
2022/10/18 18:21:03;;;;;;;;;;;;;;;;;;946755;27;19941;-78
2022/10/18 18:21:34;;;;;;;;;;;;;;;;;;946090;27;19914;-78
2022/10/18 18:22:05;;;;;;;;;;;;;;;;;;946659;27;19904;-76
2022/10/18 18:22:40;;;;;;;;;;;;;;;;;;946759;27;20260;-77
2022/10/18 18:23:11;;;;;;;;;;;;;;;;;;945839;27;19962;-83
2022/10/18 18:23:41;;;;;;;;;;;;;;;;;;946890;27;20306;-77
2022/10/18 18:24:46;;;;;;;;;;;;;;;;;;944596;27;19948;-77
2022/10/18 18:25:16;;;;;;;;;;;;;;;;;;946940;27;19996;-78
2022/10/18 18:25:53;;;;;;;;;;;;;;;;;;946734;27;19958;-79
2022/10/18 18:26:27;;;;;;;;;;;;;;;;;;946583;27;19923;-78
2022/10/18 18:26:58;;;;;;;;;;;;;;;;;;947016;27;19900;-81
2022/10/18 18:27:31;;;;;;;;;;;;;;;;;;945430;27;19918;-77
2022/10/18 18:28:02;;;;;;;;;;;;;;;;;;945558;27;19899;-77
2022/10/18 18:28:33;;;;;;;;;;;;;;;;;;946347;27;19923;-79
2022/10/18 18:29:07;;;;;;;;;;;;;;;;;;946628;27;19918;-78
2022/10/18 18:29:37;;;;;;;;;;;;;;;;;;946473;27;19907;-78
2022/10/18 18:30:08;;;;;;;;;;;;;;;;;;946722;27;19932;-78
2022/10/18 18:30:41;;;;;;;;;;;;;;;;;;946951;27;19941;-78
2022/10/18 18:31:13;;;;;;;;;;;;;;;;;;947092;27;20331;-78
2022/10/18 18:31:44;;;;;;;;;;;;;;;;;;946317;27;19899;-77
2022/10/18 18:32:18;;;;;;;;;;;;;;;;;;945628;27;19940;-78
2022/10/18 18:32:51;;;;;;;;;;;;;;;;;;944222;27;20156;-77
2022/10/18 18:33:22;;;;;;;;;;;;;;;;;;944985;27;19962;-79
2022/10/18 18:33:56;;;;;;;;;;;;;;;;;;944323;27;20217;-78
2022/10/18 18:34:27;;;;;;;;;;;;;;;;;;944840;27;19907;-78
2022/10/18 18:34:57;;;;;;;;;;;;;;;;;;945042;27;19930;-79
2022/10/18 18:35:31;;;;;;;;;;;;;;;;;;944580;27;19899;-78
2022/10/18 18:36:03;;;;;;;;;;;;;;;;;;945247;27;19907;-79
2022/10/18 18:36:34;;;;;;;;;;;;;;;;;;944956;27;19949;-78
2022/10/18 18:37:07;;;;;;;;;;;;;;;;;;943787;27;19903;-79
2022/10/18 18:37:38;;;;;;;;;;;;;;;;;;945149;27;19914;-78
2022/10/18 18:38:09;;;;;;;;;;;;;;;;;;945366;27;19914;-78
2022/10/18 18:38:44;;;;;;;;;;;;;;;;;;944934;27;19922;-78
2022/10/18 18:39:17;;;;;;;;;;;;;;;;;;944942;27;19907;-78
2022/10/18 18:39:50;;;;;;;;;;;;;;;;;;945366;27;19907;-78
2022/10/18 18:40:22;;;;;;;;;;;;;;;;;;945000;27;20125;-77
2022/10/18 18:41:02;;;;;;;;;;;;;;;;;;945671;27;19908;-78
2022/10/18 18:41:36;;;;;;;;;;;;;;;;;;946441;27;19958;-78
2022/10/18 18:42:06;;;;;;;;;;;;;;;;;;945153;27;19911;-77
2022/10/18 18:42:37;;;;;;;;;;;;;;;;;;945817;27;19903;-78
2022/10/18 18:43:10;;;;;;;;;;;;;;;;;;945192;27;19923;-79
2022/10/18 18:43:42;;;;;;;;;;;;;;;;;;943073;27;19900;-78
2022/10/18 18:44:47;;;;;;;;;;;;;;;;;;942345;27;19915;-76
2022/10/18 18:45:18;;;;;;;;;;;;;;;;;;942074;27;19907;-78
2022/10/18 18:45:49;;;;;;;;;;;;;;;;;;942754;27;20378;-78
2022/10/18 18:46:23;;;;;;;;;;;;;;;;;;943476;27;19908;-78
2022/10/18 18:46:54;;;;;;;;;;;;;;;;;;942893;27;19914;-77
2022/10/18 18:48:01;;;;;;;;;;;;;;;;;;942328;27;19955;-77
2022/10/18 18:48:32;;;;;;;;;;;;;;;;;;941681;27;19915;-78
2022/10/18 18:49:03;;;;;;;;;;;;;;;;;;942231;27;19918;-78
2022/10/18 18:49:37;;;;;;;;;;;;;;;;;;942821;27;19921;-78
2022/10/18 18:50:08;;;;;;;;;;;;;;;;;;943335;27;19918;-78
2022/10/18 18:50:38;;;;;;;;;;;;;;;;;;942746;27;20211;-79
2022/10/18 18:51:13;;;;;;;;;;;;;;;;;;943495;27;19903;-79
2022/10/18 18:51:45;;;;;;;;;;;;;;;;;;943979;27;20153;-78
2022/10/18 18:52:18;;;;;;;;;;;;;;;;;;943810;27;19907;-77
2022/10/18 18:52:49;;;;;;;;;;;;;;;;;;943370;27;19908;-78
2022/10/18 18:53:19;;;;;;;;;;;;;;;;;;943016;27;19899;-78
2022/10/18 18:53:53;;;;;;;;;;;;;;;;;;942591;27;20185;-78
2022/10/18 18:54:24;;;;;;;;;;;;;;;;;;943453;27;19899;-77
2022/10/18 18:54:55;;;;;;;;;;;;;;;;;;943921;27;19900;-77
2022/10/18 18:55:26;;;;;;;;;;;;;;;;;;943542;27;19944;-79
2022/10/18 18:56:02;;;;;;;;;;;;;;;;;;943655;27;19913;-78
2022/10/18 18:56:33;;;;;;;;;;;;;;;;;;943863;27;19907;-78
2022/10/18 18:57:07;;;;;;;;;;;;;;;;;;943483;27;19899;-77
2022/10/18 18:57:37;;;;;;;;;;;;;;;;;;943768;27;19899;-78
2022/10/18 18:58:08;;;;;;;;;;;;;;;;;;943146;27;19908;-79
2022/10/18 18:58:42;;;;;;;;;;;;;;;;;;943907;27;19932;-78
2022/10/18 18:59:14;;;;;;;;;;;;;;;;;;943594;27;20181;-77
2022/10/18 18:59:45;;;;;;;;;;;;;;;;;;943313;27;19899;-78
2022/10/18 19:00:48;;;;;;;;;;;;;;;;;;943057;27;20066;-77
2022/10/18 19:01:21;;;;;;;;;;;;;;;;;;943322;27;19903;-77
2022/10/18 19:01:54;;;;;;;;;;;;;;;;;;942254;27;20188;-77
2022/10/18 19:02:25;;;;;;;;;;;;;;;;;;942838;27;20203;-77
2022/10/18 19:02:58;;;;;;;;;;;;;;;;;;943103;27;19918;-78
2022/10/18 19:03:32;;;;;;;;;;;;;;;;;;943766;27;19900;-79
2022/10/18 19:04:04;;;;;;;;;;;;;;;;;;942459;27;20211;-79
2022/10/18 19:04:40;;;;;;;;;;;;;;;;;;942064;27;19907;-78
2022/10/18 19:05:10;;;;;;;;;;;;;;;;;;942242;27;19908;-78
2022/10/18 19:05:41;;;;;;;;;;;;;;;;;;943822;27;19903;-78
2022/10/18 19:06:17;;;;;;;;;;;;;;;;;;944201;27;19915;-78
2022/10/18 19:06:48;;;;;;;;;;;;;;;;;;942589;27;19914;-78
2022/10/18 19:07:18;;;;;;;;;;;;;;;;;;942540;27;20216;-78
2022/10/18 19:07:51;;;;;;;;;;;;;;;;;;942779;27;20327;-77
2022/10/18 19:08:22;;;;;;;;;;;;;;;;;;942002;27;20160;-78
2022/10/18 19:08:59;;;;;;;;;;;;;;;;;;941786;27;19907;-79
2022/10/18 19:09:36;;;;;;;;;;;;;;;;;;942633;27;19912;-77
2022/10/18 19:10:07;;;;;;;;;;;;;;;;;;942971;27;19967;-78
2022/10/18 19:10:38;;;;;;;;;;;;;;;;;;941251;27;19907;-76
2022/10/18 19:11:13;;;;;;;;;;;;;;;;;;941570;27;20243;-76
2022/10/18 19:11:45;;;;;;;;;;;;;;;;;;942107;27;19959;-79
2022/10/18 19:12:16;;;;;;;;;;;;;;;;;;943409;27;19959;-78
2022/10/18 19:12:49;;;;;;;;;;;;;;;;;;942287;27;19918;-79
2022/10/18 19:13:20;;;;;;;;;;;;;;;;;;942404;27;19967;-77
2022/10/18 19:13:51;;;;;;;;;;;;;;;;;;942528;27;19946;-77
2022/10/18 19:14:24;;;;;;;;;;;;;;;;;;942003;27;19956;-78
2022/10/18 19:14:55;;;;;;;;;;;;;;;;;;941359;27;20140;-79
2022/10/18 19:15:26;;;;;;;;;;;;;;;;;;942189;27;20213;-78
2022/10/18 19:16:14;;;;;;;;;;;;;;;;;;942666;27;19916;-78
2022/10/18 19:16:46;;;;;;;;;;;;;;;;;;942273;27;19907;-78
2022/10/18 19:17:20;;;;;;;;;;;;;;;;;;943113;27;19970;-78
2022/10/18 19:17:51;;;;;;;;;;;;;;;;;;944281;27;19899;-78
2022/10/18 19:18:25;;;;;;;;;;;;;;;;;;943829;27;19899;-79
2022/10/18 19:18:59;;;;;;;;;;;;;;;;;;942569;27;20265;-78
2022/10/18 19:19:30;;;;;;;;;;;;;;;;;;942157;27;19918;-77
2022/10/18 19:20:02;;;;;;;;;;;;;;;;;;942858;27;19903;-77
2022/10/18 19:20:35;;;;;;;;;;;;;;;;;;941688;27;20145;-78
2022/10/18 19:21:06;;;;;;;;;;;;;;;;;;941936;27;19914;-78
2022/10/18 19:21:40;;;;;;;;;;;;;;;;;;942534;27;20240;-78
2022/10/18 19:22:10;;;;;;;;;;;;;;;;;;943506;27;19906;-78
2022/10/18 19:22:41;;;;;;;;;;;;;;;;;;942338;27;20168;-77
2022/10/18 19:23:14;;;;;;;;;;;;;;;;;;942837;27;19967;-76
2022/10/18 19:23:45;;;;;;;;;;;;;;;;;;941813;27;19922;-78
2022/10/18 19:24:18;;;;;;;;;;;;;;;;;;942573;27;20263;-77
2022/10/18 19:24:49;;;;;;;;;;;;;;;;;;941420;27;19918;-78
2022/10/18 19:25:20;;;;;;;;;;;;;;;;;;942032;27;19907;-78
2022/10/18 19:25:51;;;;;;;;;;;;;;;;;;943383;27;19923;-79
2022/10/18 19:26:34;;;;;;;;;;;;;;;;;;942748;27;19914;-77
2022/10/18 19:27:08;;;;;;;;;;;;;;;;;;943118;27;19899;-77
2022/10/18 19:27:39;;;;;;;;;;;;;;;;;;943496;27;19899;-80
2022/10/18 19:28:12;;;;;;;;;;;;;;;;;;944509;27;19900;-78
2022/10/18 19:28:43;;;;;;;;;;;;;;;;;;944587;27;19915;-79
2022/10/18 19:29:14;;;;;;;;;;;;;;;;;;944004;27;19906;-77
2022/10/18 19:29:48;;;;;;;;;;;;;;;;;;944028;27;19924;-77
2022/10/18 19:30:19;;;;;;;;;;;;;;;;;;942788;27;19904;-78
2022/10/18 19:30:51;;;;;;;;;;;;;;;;;;943757;27;19915;-78
2022/10/18 19:31:25;;;;;;;;;;;;;;;;;;942915;27;19907;-79
2022/10/18 19:31:58;;;;;;;;;;;;;;;;;;942967;27;19907;-78
2022/10/18 19:32:31;;;;;;;;;;;;;;;;;;943803;27;19907;-80
2022/10/18 19:33:03;;;;;;;;;;;;;;;;;;944376;27;19907;-78
2022/10/18 19:33:36;;;;;;;;;;;;;;;;;;943751;27;20273;-77
2022/10/18 19:34:11;;;;;;;;;;;;;;;;;;943410;27;19958;-78
2022/10/18 19:34:42;;;;;;;;;;;;;;;;;;944699;27;19911;-78
2022/10/18 19:35:13;;;;;;;;;;;;;;;;;;944512;27;19896;-79
2022/10/18 19:35:46;;;;;;;;;;;;;;;;;;944711;27;19895;-78
2022/10/18 19:36:17;;;;;;;;;;;;;;;;;;943970;27;19918;-78
2022/10/18 19:36:50;;;;;;;;;;;;;;;;;;943870;27;19926;-78
2022/10/18 19:37:21;;;;;;;;;;;;;;;;;;943731;27;19908;-78
2022/10/18 19:37:52;;;;;;;;;;;;;;;;;;943473;27;19896;-78
2022/10/18 19:38:22;;;;;;;;;;;;;;;;;;943866;27;20247;-79
2022/10/18 19:38:56;;;;;;;;;;;;;;;;;;943487;27;19907;-78
2022/10/18 19:39:27;;;;;;;;;;;;;;;;;;943169;27;19907;-78
2022/10/18 19:39:58;;;;;;;;;;;;;;;;;;944038;27;19916;-79
2022/10/18 19:40:32;;;;;;;;;;;;;;;;;;943573;27;19915;-78
2022/10/18 19:41:02;;;;;;;;;;;;;;;;;;943670;27;20014;-78
2022/10/18 19:41:33;;;;;;;;;;;;;;;;;;942787;27;19915;-76
2022/10/18 19:42:07;;;;;;;;;;;;;;;;;;942952;27;19998;-78
2022/10/18 19:42:38;;;;;;;;;;;;;;;;;;943036;27;19907;-77
2022/10/18 19:43:09;;;;;;;;;;;;;;;;;;943040;27;20183;-78
2022/10/18 19:43:40;;;;;;;;;;;;;;;;;;943768;27;19980;-78
2022/10/18 19:44:13;;;;;;;;;;;;;;;;;;943846;27;19904;-79
2022/10/18 19:44:43;;;;;;;;;;;;;;;;;;943012;27;19903;-78
2022/10/18 19:45:15;;;;;;;;;;;;;;;;;;943537;27;19914;-77
2022/10/18 19:45:48;;;;;;;;;;;;;;;;;;944178;27;20230;-77
2022/10/18 19:46:19;;;;;;;;;;;;;;;;;;943412;27;19923;-78
2022/10/18 19:46:50;;;;;;;;;;;;;;;;;;944063;27;19915;-78
2022/10/18 19:47:23;;;;;;;;;;;;;;;;;;943569;27;19903;-78
2022/10/18 19:47:54;;;;;;;;;;;;;;;;;;943572;27;20202;-79
2022/10/18 19:48:25;;;;;;;;;;;;;;;;;;943934;27;19918;-77
2022/10/18 19:49:01;;;;;;;;;;;;;;;;;;943829;27;19926;-79
2022/10/18 19:49:31;;;;;;;;;;;;;;;;;;943793;27;20215;-79
2022/10/18 19:50:37;;;;;;;;;;;;;;;;;;943951;27;20156;-78
2022/10/18 19:51:08;;;;;;;;;;;;;;;;;;943584;27;19910;-77
2022/10/18 19:51:41;;;;;;;;;;;;;;;;;;943642;27;19934;-78
2022/10/18 19:52:12;;;;;;;;;;;;;;;;;;943727;27;19907;-79
2022/10/18 19:52:42;;;;;;;;;;;;;;;;;;944340;27;19900;-78
2022/10/18 19:53:16;;;;;;;;;;;;;;;;;;943586;27;20255;-79
2022/10/18 19:53:46;;;;;;;;;;;;;;;;;;943820;27;19907;-79
2022/10/18 19:54:20;;;;;;;;;;;;;;;;;;943256;27;19907;-79
2022/10/18 19:54:51;;;;;;;;;;;;;;;;;;944148;27;19922;-78
2022/10/18 19:55:21;;;;;;;;;;;;;;;;;;942329;27;20188;-78
2022/10/18 19:55:56;;;;;;;;;;;;;;;;;;943934;27;19903;-79
2022/10/18 19:56:30;;;;;;;;;;;;;;;;;;943696;27;20717;-77
2022/10/18 19:57:00;;;;;;;;;;;;;;;;;;942601;27;20152;-78
2022/10/18 19:57:34;;;;;;;;;;;;;;;;;;943660;27;19895;-79
2022/10/18 19:58:05;;;;;;;;;;;;;;;;;;944087;27;19904;-79
2022/10/18 19:58:35;;;;;;;;;;;;;;;;;;943672;27;19903;-78
2022/10/18 19:59:09;;;;;;;;;;;;;;;;;;943779;27;19899;-78
2022/10/18 19:59:40;;;;;;;;;;;;;;;;;;944029;27;19899;-78
2022/10/18 20:00:11;;;;;;;;;;;;;;;;;;943753;27;19907;-77
2022/10/18 20:00:42;;;;;;;;;;;;;;;;;;943441;27;19900;-80
2022/10/18 20:01:15;;;;;;;;;;;;;;;;;;943566;27;19908;-79
2022/10/18 20:01:46;;;;;;;;;;;;;;;;;;943826;27;19904;-79
2022/10/18 20:02:19;;;;;;;;;;;;;;;;;;943738;27;20267;-77
2022/10/18 20:02:50;;;;;;;;;;;;;;;;;;944352;27;19895;-79
2022/10/18 20:03:21;;;;;;;;;;;;;;;;;;942573;27;19908;-78
2022/10/18 20:03:54;;;;;;;;;;;;;;;;;;943729;27;19895;-79
2022/10/18 20:04:32;;;;;;;;;;;;;;;;;;943920;27;19895;-78
2022/10/18 20:05:06;;;;;;;;;;;;;;;;;;944205;27;19895;-79
2022/10/18 20:05:36;;;;;;;;;;;;;;;;;;943871;27;19918;-78
2022/10/18 20:06:08;;;;;;;;;;;;;;;;;;943170;27;19918;-78
2022/10/18 20:06:41;;;;;;;;;;;;;;;;;;944184;27;19947;-79
2022/10/18 20:07:12;;;;;;;;;;;;;;;;;;944234;27;19963;-78
2022/10/18 20:07:44;;;;;;;;;;;;;;;;;;943565;27;19949;-79
2022/10/18 20:08:17;;;;;;;;;;;;;;;;;;942778;27;19924;-78
2022/10/18 20:08:48;;;;;;;;;;;;;;;;;;944491;27;19922;-77
2022/10/18 20:09:55;;;;;;;;;;;;;;;;;;943611;27;19914;-77
2022/10/18 20:10:25;;;;;;;;;;;;;;;;;;943095;27;19895;-77
2022/10/18 20:10:59;;;;;;;;;;;;;;;;;;943494;27;19903;-78
2022/10/18 20:11:33;;;;;;;;;;;;;;;;;;943605;27;19908;-79
2022/10/18 20:12:03;;;;;;;;;;;;;;;;;;944465;27;19915;-78
2022/10/18 20:12:35;;;;;;;;;;;;;;;;;;944038;27;19899;-78
2022/10/18 20:13:08;;;;;;;;;;;;;;;;;;944259;27;19900;-78
2022/10/18 20:13:39;;;;;;;;;;;;;;;;;;944426;27;19899;-78
2022/10/18 20:14:14;;;;;;;;;;;;;;;;;;943973;27;20220;-77
2022/10/18 20:14:44;;;;;;;;;;;;;;;;;;943435;27;20184;-79
2022/10/18 20:15:15;;;;;;;;;;;;;;;;;;943596;27;19907;-77
2022/10/18 20:15:49;;;;;;;;;;;;;;;;;;943552;27;20170;-78
2022/10/18 20:16:20;;;;;;;;;;;;;;;;;;944023;27;19903;-79
2022/10/18 20:16:51;;;;;;;;;;;;;;;;;;943233;27;19954;-79
2022/10/18 20:17:25;;;;;;;;;;;;;;;;;;943510;27;20009;-79
2022/10/18 20:17:56;;;;;;;;;;;;;;;;;;943153;27;19907;-78
2022/10/18 20:18:29;;;;;;;;;;;;;;;;;;943633;27;19907;-78
2022/10/18 20:19:00;;;;;;;;;;;;;;;;;;943691;27;19896;-78
2022/10/18 20:19:37;;;;;;;;;;;;;;;;;;943600;27;19920;-79
2022/10/18 20:20:38;;;;;;;;;;;;;;;;;;942875;27;19906;-78
2022/10/18 20:21:12;;;;;;;;;;;;;;;;;;944319;27;19971;-78
2022/10/18 20:21:43;;;;;;;;;;;;;;;;;;943731;27;19896;-78
2022/10/18 20:22:13;;;;;;;;;;;;;;;;;;943333;27;19903;-78
2022/10/18 20:22:48;;;;;;;;;;;;;;;;;;944036;27;19906;-79
2022/10/18 20:23:49;;;;;;;;;;;;;;;;;;943005;27;19903;-78
2022/10/18 20:24:22;;;;;;;;;;;;;;;;;;943986;27;19920;-78
2022/10/18 20:24:54;;;;;;;;;;;;;;;;;;944168;27;19915;-78
2022/10/18 20:25:25;;;;;;;;;;;;;;;;;;943541;27;20210;-78
2022/10/18 20:25:58;;;;;;;;;;;;;;;;;;943315;27;19911;-77
2022/10/18 20:26:29;;;;;;;;;;;;;;;;;;943794;27;19900;-78
2022/10/18 20:27:00;;;;;;;;;;;;;;;;;;942883;27;19895;-79
2022/10/18 20:27:33;;;;;;;;;;;;;;;;;;943576;27;19907;-81
2022/10/18 20:28:04;;;;;;;;;;;;;;;;;;943933;27;19906;-80
2022/10/18 20:28:36;;;;;;;;;;;;;;;;;;943751;27;19899;-80
2022/10/18 20:29:09;;;;;;;;;;;;;;;;;;943553;27;19937;-81
2022/10/18 20:29:40;;;;;;;;;;;;;;;;;;943341;27;19908;-79
2022/10/18 20:30:44;;;;;;;;;;;;;;;;;;942721;27;19907;-80
2022/10/18 20:31:16;;;;;;;;;;;;;;;;;;943081;27;19895;-79
2022/10/18 20:31:49;;;;;;;;;;;;;;;;;;942810;27;20190;-78
2022/10/18 20:32:20;;;;;;;;;;;;;;;;;;943604;27;19907;-80
2022/10/18 20:32:51;;;;;;;;;;;;;;;;;;942836;27;19904;-78
2022/10/18 20:33:55;;;;;;;;;;;;;;;;;;943038;27;20212;-78
2022/10/18 20:34:27;;;;;;;;;;;;;;;;;;942512;27;19895;-77
2022/10/18 20:35:03;;;;;;;;;;;;;;;;;;943173;27;20276;-78
2022/10/18 20:35:33;;;;;;;;;;;;;;;;;;943267;27;19902;-79
2022/10/18 20:36:05;;;;;;;;;;;;;;;;;;942889;27;19896;-79
2022/10/18 20:36:39;;;;;;;;;;;;;;;;;;943422;27;20235;-78
2022/10/18 20:37:09;;;;;;;;;;;;;;;;;;942063;27;20164;-78
2022/10/18 20:37:40;;;;;;;;;;;;;;;;;;942494;27;19899;-77
2022/10/18 20:38:13;;;;;;;;;;;;;;;;;;943279;27;19899;-77
2022/10/18 20:38:45;;;;;;;;;;;;;;;;;;942709;27;19915;-78
2022/10/18 20:39:18;;;;;;;;;;;;;;;;;;943899;27;19911;-78
2022/10/18 20:39:48;;;;;;;;;;;;;;;;;;943841;27;19920;-79
2022/10/18 20:40:19;;;;;;;;;;;;;;;;;;942411;27;19903;-79
2022/10/18 20:40:52;;;;;;;;;;;;;;;;;;942762;27;20099;-78
2022/10/18 20:41:24;;;;;;;;;;;;;;;;;;942888;27;19906;-80
2022/10/18 20:41:55;;;;;;;;;;;;;;;;;;942881;27;19903;-78
2022/10/18 20:42:28;;;;;;;;;;;;;;;;;;943128;27;19984;-80
2022/10/18 20:42:59;;;;;;;;;;;;;;;;;;942617;27;19903;-78
2022/10/18 20:43:30;;;;;;;;;;;;;;;;;;942334;27;19903;-79
2022/10/18 20:44:05;;;;;;;;;;;;;;;;;;943440;27;20462;-78
2022/10/18 20:44:39;;;;;;;;;;;;;;;;;;942666;27;19915;-78
2022/10/18 20:45:11;;;;;;;;;;;;;;;;;;943052;27;19907;-78
2022/10/18 20:45:44;;;;;;;;;;;;;;;;;;942523;27;19961;-77
2022/10/18 20:46:15;;;;;;;;;;;;;;;;;;943710;27;20280;-78
2022/10/18 20:46:45;;;;;;;;;;;;;;;;;;942334;27;19922;-78
2022/10/18 20:47:19;;;;;;;;;;;;;;;;;;944135;27;19962;-78
2022/10/18 20:47:49;;;;;;;;;;;;;;;;;;943717;27;19939;-78
2022/10/18 20:48:20;;;;;;;;;;;;;;;;;;943546;27;19907;-77
2022/10/18 20:48:54;;;;;;;;;;;;;;;;;;944134;27;19923;-78
2022/10/18 20:49:24;;;;;;;;;;;;;;;;;;942861;27;19914;-78
2022/10/18 20:49:55;;;;;;;;;;;;;;;;;;944114;27;19922;-78
2022/10/18 20:50:31;;;;;;;;;;;;;;;;;;942732;27;19916;-78